createdAt,value
2024-04-22T00:05:03.141Z,97064.03
2024-04-22T00:35:05.727Z,97070.63
2024-04-22T01:05:09.771Z,97114.66
2024-04-22T01:35:12.247Z,97132.97
2024-04-22T02:05:14.672Z,97145.66
2024-04-22T02:35:17.203Z,97148.53
2024-04-22T03:05:19.768Z,97180.50
2024-04-22T03:35:22.246Z,97206.72
2024-04-22T04:05:24.795Z,97228.00
2024-04-22T04:35:28.330Z,97259.31
2024-04-22T05:05:30.830Z,97280.38
2024-04-22T05:35:51.924Z,97311.44
2024-04-22T06:05:54.374Z,97324.53
2024-04-22T06:35:57.200Z,97355.41
2024-04-22T07:05:59.618Z,97383.22
2024-04-22T07:36:45.004Z,97429.53
2024-04-22T08:06:47.491Z,97437.16
2024-04-22T08:36:50.084Z,97453.25
2024-04-22T09:06:52.551Z,97439.72
2024-04-22T09:36:55.326Z,97450.00
2024-04-22T10:06:57.794Z,97440.34
2024-04-22T10:37:00.563Z,97432.19
2024-04-22T11:07:03.477Z,97425.75
2024-04-22T11:37:06.108Z,97424.88
2024-04-22T12:07:09.566Z,97393.88
2024-04-22T12:37:13.113Z,97371.91
2024-04-22T13:07:15.900Z,97363.88
2024-04-22T13:37:18.619Z,97358.19
2024-04-22T14:07:21.380Z,97363.78
2024-04-22T14:37:24.374Z,97363.16
2024-04-22T15:07:27.747Z,97341.16
2024-04-22T15:37:30.355Z,97339.38
2024-04-22T16:07:33.228Z,97363.56
2024-04-22T16:37:38.154Z,97376.56
2024-04-22T17:07:40.688Z,97409.47
2024-04-22T17:37:43.251Z,97430.03
2024-04-22T18:07:46.455Z,97446.00
2024-04-22T18:37:49.626Z,97474.66
2024-04-22T19:07:52.818Z,97463.31
2024-04-22T19:37:55.568Z,97453.91
2024-04-22T20:07:58.370Z,97476.56
2024-04-22T20:38:00.919Z,97435.72
2024-04-22T21:08:03.708Z,97484.22
2024-04-22T21:38:07.117Z,97449.03
2024-04-22T22:08:10.516Z,97409.19
2024-04-22T22:38:13.582Z,97460.13
2024-04-22T23:08:16.302Z,97398.75
2024-04-22T23:38:18.970Z,97417.25
